Cape Sakura — 7JHZ — position and weather

sailwx.info

Track history (hours):
 
Tides and Currents Weather Stations Pressure Air Temp Water Temp Dewpoint Dewpoint Depression Visibility Wind Speed Wind Dir Waves Ship Positions

Cape Sakura

Last reported at 2014-Nov-01 09:32 UTC. Time now 2014-Nov-01 09:49 UTC.
Position S 32°53' E 151°45'.

Length 292 m; draft 9.2 m.

Type: Cargo ship. MMSI: 432786000.

Date/timePositionNaut miles runAvg speedWind from/ knotsBaromVisibWave heightAir tempDewpointWater temp
2014-Nov-01 09:32S 32°53' E 151°45'0 0.0
2014-Nov-01 08:32S 32°53' E 151°45'0 0.0
2014-Nov-01 07:32S 32°53' E 151°45'0 0.0
2014-Nov-01 06:32S 32°53' E 151°45'2 1.7
2014-Nov-01 05:33S 32°54' E 151°46'7 6.7
2014-Nov-01 04:33S 32°60' E 151°51'9 8.8
2014-Nov-01 03:33S 33°08' E 151°48'9 0.6
2014-Oct-31 12:32S 33°15' E 151°41'0 0.0
2014-Oct-31 11:32S 33°15' E 151°41'0 0.0
2014-Oct-31 10:32S 33°15' E 151°41'0 0.0
2014-Oct-31 09:26S 33°15' E 151°41'0 0.0
2014-Oct-31 08:32S 33°15' E 151°41'0 0.0
2014-Oct-31 07:32S 33°15' E 151°41'0 0.0
2014-Oct-31 06:32S 33°15' E 151°41'0 0.0
2014-Oct-31 05:32S 33°15' E 151°41'0 0.0
2014-Oct-31 04:32S 33°15' E 151°41'0 0.0
2014-Oct-31 03:32S 33°15' E 151°41'0 0.0
2014-Oct-31 02:32S 33°15' E 151°41'0 0.0
2014-Oct-30 23:32S 33°15' E 151°41'0 0.0
2014-Oct-30 22:32S 33°15' E 151°41'0 0.0
2014-Oct-30 21:32S 33°15' E 151°41'0 0.0
2014-Oct-30 20:26S 33°15' E 151°41'0 0.0
2014-Oct-30 17:08S 33°14' E 151°41'0 0.1
2014-Oct-30 16:32S 33°14' E 151°41'0 0.0
2014-Oct-30 15:32S 33°14' E 151°41'0 0.1
2014-Oct-30 14:32S 33°14' E 151°41'0 0.1
2014-Oct-30 13:32S 33°14' E 151°41'0 0.0
2014-Oct-30 12:32S 33°14' E 151°41'0 0.1
2014-Oct-30 11:32S 33°15' E 151°41'0 0.1
2014-Oct-30 10:32S 33°15' E 151°41'0 0.1
2014-Oct-30 09:32S 33°15' E 151°41'0 0.1
2014-Oct-30 08:32S 33°15' E 151°41'0 0.1
2014-Oct-30 07:32S 33°15' E 151°41'0 0.0
2014-Oct-30 06:20S 33°15' E 151°41'0 0.1
2014-Oct-30 05:29S 33°15' E 151°41'0 0.1
2014-Oct-30 04:29S 33°15' E 151°41'0 0.0
2014-Oct-30 03:32S 33°15' E 151°41'2 0.1
2014-Oct-28 23:33S 33°14' E 151°43'1010.1
2014-Oct-28 22:33S 33°13' E 151°55'1414.1
2014-Oct-28 21:33S 33°11' E 152°12'1414.4
2014-Oct-28 20:33S 33°08' E 152°28'1413.7
2014-Oct-28 19:33S 33°05' E 152°45'107 8.9
2014-Oct-28 07:32S 32°39' E 154°48'51 2.5
2014-Oct-27 11:12S 32°04' E 154°04'3 4.1
2014-Oct-27 10:28S 32°01' E 154°03'3 3.6
2014-Oct-27 09:33S 31°58' E 154°02'11 5.3
2014-Oct-27 07:33S 31°48' E 154°01'1616.3
2014-Oct-27 06:33S 31°31' E 154°01'1615.7
2014-Oct-27 05:32S 31°15' E 154°01'1515.2
2014-Oct-27 04:33S 31°00' E 154°01'1515.0
2014-Oct-27 03:33S 30°45' E 154°02'1714.8
2014-Oct-27 02:23S 30°28' E 154°02'15016.3
2014-Oct-26 17:10S 27°58' E 154°04'1316.9
2014-Oct-26 16:23S 27°45' E 154°04'1517.2
2014-Oct-26 15:32S 27°30' E 154°04'1716.9
2014-Oct-26 14:33S 27°14' E 154°04'1616.7
2014-Oct-26 13:33S 26°57' E 154°04'1717.2
2014-Oct-26 12:33S 26°40' E 154°04'1716.8
2014-Oct-26 11:33S 26°23' E 154°04'1615.8
2014-Oct-26 10:33S 26°07' E 154°04'1615.6
2014-Oct-26 09:33S 25°52' E 154°04'1615.8
2014-Oct-26 08:33S 25°36' E 154°04'1815.9
2014-Oct-26 07:24S 25°18' E 154°04'17315.6
2014-Oct-25 20:20S 22°24' E 154°04'1615.3
2014-Oct-25 19:16S 22°08' E 154°04'1115.5
2014-Oct-25 18:33S 21°57' E 154°05'1514.8
2014-Oct-25 17:33S 21°42' E 154°06'  
Track history (hours):
 
Tides and Currents Weather Stations Pressure Air Temp Water Temp Dewpoint Dewpoint Depression Visibility Wind Speed Wind Dir Waves Ship Positions

Cape Sakura

Last reported at 2014-Nov-01 09:32 UTC. Time now 2014-Nov-01 09:49 UTC.
Position S 32°53' E 151°45'.

Length 292 m; draft 9.2 m.

Type: Cargo ship. MMSI: 432786000.

Date/timePositionNaut miles runAvg speedWind from/ knotsBaromVisibWave heightAir tempDewpointWater temp
2014-Nov-01 09:32S 32°53' E 151°45'0 0.0
2014-Nov-01 08:32S 32°53' E 151°45'0 0.0
2014-Nov-01 07:32S 32°53' E 151°45'0 0.0
2014-Nov-01 06:32S 32°53' E 151°45'2 1.7
2014-Nov-01 05:33S 32°54' E 151°46'7 6.7
2014-Nov-01 04:33S 32°60' E 151°51'9 8.8
2014-Nov-01 03:33S 33°08' E 151°48'9 0.6
2014-Oct-31 12:32S 33°15' E 151°41'0 0.0
2014-Oct-31 11:32S 33°15' E 151°41'0 0.0
2014-Oct-31 10:32S 33°15' E 151°41'0 0.0
2014-Oct-31 09:26S 33°15' E 151°41'0 0.0
2014-Oct-31 08:32S 33°15' E 151°41'0 0.0
2014-Oct-31 07:32S 33°15' E 151°41'0 0.0
2014-Oct-31 06:32S 33°15' E 151°41'0 0.0
2014-Oct-31 05:32S 33°15' E 151°41'0 0.0
2014-Oct-31 04:32S 33°15' E 151°41'0 0.0
2014-Oct-31 03:32S 33°15' E 151°41'0 0.0
2014-Oct-31 02:32S 33°15' E 151°41'0 0.0
2014-Oct-30 23:32S 33°15' E 151°41'0 0.0
2014-Oct-30 22:32S 33°15' E 151°41'0 0.0
2014-Oct-30 21:32S 33°15' E 151°41'0 0.0
2014-Oct-30 20:26S 33°15' E 151°41'0 0.0
2014-Oct-30 17:08S 33°14' E 151°41'0 0.1
2014-Oct-30 16:32S 33°14' E 151°41'0 0.0
2014-Oct-30 15:32S 33°14' E 151°41'0 0.1
2014-Oct-30 14:32S 33°14' E 151°41'0 0.1
2014-Oct-30 13:32S 33°14' E 151°41'0 0.0
2014-Oct-30 12:32S 33°14' E 151°41'0 0.1
2014-Oct-30 11:32S 33°15' E 151°41'0 0.1
2014-Oct-30 10:32S 33°15' E 151°41'0 0.1
2014-Oct-30 09:32S 33°15' E 151°41'0 0.1
2014-Oct-30 08:32S 33°15' E 151°41'0 0.1
2014-Oct-30 07:32S 33°15' E 151°41'0 0.0
2014-Oct-30 06:20S 33°15' E 151°41'0 0.1
2014-Oct-30 05:29S 33°15' E 151°41'0 0.1
2014-Oct-30 04:29S 33°15' E 151°41'0 0.0
2014-Oct-30 03:32S 33°15' E 151°41'2 0.1
2014-Oct-28 23:33S 33°14' E 151°43'1010.1
2014-Oct-28 22:33S 33°13' E 151°55'1414.1
2014-Oct-28 21:33S 33°11' E 152°12'1414.4
2014-Oct-28 20:33S 33°08' E 152°28'1413.7
2014-Oct-28 19:33S 33°05' E 152°45'107 8.9
2014-Oct-28 07:32S 32°39' E 154°48'51 2.5
2014-Oct-27 11:12S 32°04' E 154°04'3 4.1
2014-Oct-27 10:28S 32°01' E 154°03'3 3.6
2014-Oct-27 09:33S 31°58' E 154°02'11 5.3
2014-Oct-27 07:33S 31°48' E 154°01'1616.3
2014-Oct-27 06:33S 31°31' E 154°01'1615.7
2014-Oct-27 05:32S 31°15' E 154°01'1515.2
2014-Oct-27 04:33S 31°00' E 154°01'1515.0
2014-Oct-27 03:33S 30°45' E 154°02'1714.8
2014-Oct-27 02:23S 30°28' E 154°02'15016.3
2014-Oct-26 17:10S 27°58' E 154°04'1316.9
2014-Oct-26 16:23S 27°45' E 154°04'1517.2
2014-Oct-26 15:32S 27°30' E 154°04'1716.9
2014-Oct-26 14:33S 27°14' E 154°04'1616.7
2014-Oct-26 13:33S 26°57' E 154°04'1717.2
2014-Oct-26 12:33S 26°40' E 154°04'1716.8
2014-Oct-26 11:33S 26°23' E 154°04'1615.8
2014-Oct-26 10:33S 26°07' E 154°04'1615.6
2014-Oct-26 09:33S 25°52' E 154°04'1615.8
2014-Oct-26 08:33S 25°36' E 154°04'1815.9
2014-Oct-26 07:24S 25°18' E 154°04'17315.6
2014-Oct-25 20:20S 22°24' E 154°04'1615.3
2014-Oct-25 19:16S 22°08' E 154°04'1115.5
2014-Oct-25 18:33S 21°57' E 154°05'1514.8
2014-Oct-25 17:33S 21°42' E 154°06'  

Dump ship's entire track history